Time;durP1;ratioP1;P1;durP2;ratioP2;P2;SDS_P1;SDS_P2;PMS_P1;PMS_P2;Temp;Humidity;BMP_temperature;BMP_pressure;BME280_temperature;BME280_humidity;BME280_pressure;Samples;Min_cycle;Max_cycle;Signal;HPM_P1;HPM_P2
2022/06/07 00:00:16;;;;;;;6.30;4.35;;;;;;;20.66;54.28;101388.38;5073771;28;20059;-56
2022/06/07 00:02:43;;;;;;;7.88;4.75;;;;;;;20.65;54.49;101386.69;5080048;28;20048;-55
2022/06/07 00:05:10;;;;;;;5.60;4.07;;;;;;;20.66;54.71;101386.56;5073614;28;21478;-57
2022/06/07 00:07:36;;;;;;;5.88;4.07;;;;;;;20.66;53.94;101383.88;5073127;28;20082;-56
2022/06/07 00:10:04;;;;;;;6.40;4.50;;;;;;;20.65;54.43;101376.75;5072639;28;20056;-56
2022/06/07 00:12:31;;;;;;;7.38;4.53;;;;;;;20.65;53.95;101381.31;5076859;28;20064;-56
2022/06/07 00:14:57;;;;;;;7.72;4.20;;;;;;;20.64;54.24;101375.09;5073751;28;20036;-56
2022/06/07 00:17:24;;;;;;;5.63;4.20;;;;;;;20.64;54.49;101376.94;5075455;28;20051;-55
2022/06/07 00:19:50;;;;;;;7.30;3.95;;;;;;;20.64;54.49;101374.25;5075810;28;20048;-56
2022/06/07 00:22:17;;;;;;;5.47;3.83;;;;;;;20.64;53.97;101375.09;5075719;28;20050;-56
2022/06/07 00:24:44;;;;;;;5.82;4.15;;;;;;;20.65;54.16;101370.53;5077781;28;20186;-56
2022/06/07 00:27:13;;;;;;;7.10;4.20;;;;;;;20.64;54.37;101363.47;5078266;28;20059;-57
2022/06/07 00:29:41;;;;;;;6.82;4.43;;;;;;;20.64;54.29;101358.91;5075795;28;20059;-56
2022/06/07 00:32:08;;;;;;;6.70;4.10;;;;;;;20.65;54.16;101357.06;5076832;28;20046;-56
2022/06/07 00:34:35;;;;;;;7.70;4.53;;;;;;;20.64;54.15;101361.63;5077202;28;20123;-57
2022/06/07 00:37:02;;;;;;;7.38;4.78;;;;;;;20.64;54.06;101356.22;5075672;28;20769;-56
2022/06/07 00:39:28;;;;;;;5.97;3.95;;;;;;;20.64;54.42;101350.84;5073336;28;20036;-56
2022/06/07 00:41:55;;;;;;;6.43;4.13;;;;;;;20.64;54.00;101342.75;5074961;28;20044;-55
2022/06/07 00:44:21;;;;;;;8.07;4.40;;;;;;;20.64;54.45;101342.75;5076276;28;20054;-55
2022/06/07 00:46:49;;;;;;;6.05;3.78;;;;;;;20.63;54.30;101343.78;5074551;28;20400;-55
2022/06/07 00:49:17;;;;;;;5.05;3.35;;;;;;;20.64;54.15;101334.69;5076651;28;20044;-56
2022/06/07 00:51:45;;;;;;;6.30;3.90;;;;;;;20.63;54.45;101340.25;5076636;28;20062;-56
2022/06/07 00:54:30;;;;;;;6.68;3.80;;;;;;;20.62;54.18;101339.41;5070341;28;20048;-56
2022/06/07 00:56:57;;;;;;;6.85;3.75;;;;;;;20.63;54.29;101340.25;5073595;28;20046;-56
2022/06/07 00:59:24;;;;;;;6.57;3.75;;;;;;;20.63;54.46;101332.16;5075750;28;20036;-56
2022/06/07 01:01:51;;;;;;;4.97;3.58;;;;;;;20.62;53.88;101339.41;5079026;28;20037;-56
2022/06/07 01:04:18;;;;;;;5.80;3.65;;;;;;;20.63;54.30;101332.16;5076686;28;20036;-55
2022/06/07 01:12:15;;;;;;;5.47;3.60;;;;;;;20.61;54.26;101318.84;5079212;28;20055;-56
2022/06/07 01:14:42;;;;;;;5.05;3.70;;;;;;;20.61;54.05;101329.59;5078725;28;20412;-56
2022/06/07 01:17:08;;;;;;;5.22;3.63;;;;;;;20.61;53.86;101318.00;5076149;28;20098;-55
2022/06/07 01:19:35;;;;;;;7.97;3.47;;;;;;;20.61;54.45;101323.38;5079330;28;20045;-56
2022/06/07 01:22:01;;;;;;;5.72;3.72;;;;;;;20.60;54.45;101330.63;5078779;28;20041;-56
2022/06/07 01:24:28;;;;;;;4.65;3.47;;;;;;;20.60;53.97;101319.84;5076427;28;20044;-56
2022/06/07 01:26:54;;;;;;;25.45;4.38;;;;;;;20.60;54.01;101316.31;5078479;28;20561;-57
2022/06/07 01:29:22;;;;;;;7.47;3.70;;;;;;;20.60;54.12;101316.31;5076655;28;20135;-57
2022/06/07 01:31:48;;;;;;;5.30;3.60;;;;;;;20.59;53.84;101320.84;5077491;28;20040;-57
2022/06/07 01:34:16;;;;;;;6.10;4.35;;;;;;;20.60;54.23;101319.00;5078609;28;20044;-55
2022/06/07 01:36:42;;;;;;;4.00;3.17;;;;;;;20.59;54.39;101306.53;5077254;28;20052;-57
2022/06/07 01:41:54;;;;;;;4.45;3.30;;;;;;;20.58;54.57;101313.78;5078719;28;20040;-55
2022/06/07 01:44:27;;;;;;;5.07;3.65;;;;;;;20.57;54.14;101312.06;5077052;28;20044;-56
2022/06/07 01:46:55;;;;;;;4.57;3.50;;;;;;;20.58;54.08;101315.59;5075388;28;20038;-56
2022/06/07 01:49:23;;;;;;;5.05;3.70;;;;;;;20.58;54.34;101315.59;5080029;28;20044;-56
2022/06/07 01:51:52;;;;;;;4.25;2.83;;;;;;;20.57;54.58;101305.84;5080028;28;20059;-55
2022/06/07 01:54:20;;;;;;;4.43;3.10;;;;;;;20.56;54.62;101304.16;5075891;28;20051;-55
2022/06/07 01:56:48;;;;;;;5.45;3.38;;;;;;;20.56;53.95;101304.16;5078188;28;20051;-55
2022/06/07 01:59:16;;;;;;;4.30;3.03;;;;;;;20.55;54.16;101303.31;5075577;28;20044;-55
2022/06/07 02:01:44;;;;;;;4.57;2.88;;;;;;;20.55;54.23;101302.47;5079235;28;20427;-55
2022/06/07 02:04:11;;;;;;;4.63;3.08;;;;;;;20.54;54.37;101301.59;5074379;28;20056;-55
2022/06/07 02:06:38;;;;;;;4.47;3.03;;;;;;;20.54;54.83;101298.91;5078707;28;21563;-56
2022/06/07 02:09:06;;;;;;;4.25;2.97;;;;;;;20.55;54.18;101299.78;5080551;28;20430;-56
2022/06/07 02:11:33;;;;;;;5.03;3.03;;;;;;;20.54;54.24;101296.22;5079100;28;20047;-55
2022/06/07 02:14:00;;;;;;;4.15;2.80;;;;;;;20.55;54.42;101300.63;5073125;28;20047;-56
2022/06/07 02:16:27;;;;;;;4.22;2.92;;;;;;;20.55;54.72;101303.31;5079224;28;22030;-55
2022/06/07 02:18:54;;;;;;;3.92;2.60;;;;;;;20.55;54.14;101297.09;5078028;28;20039;-56
2022/06/07 02:21:22;;;;;;;4.28;2.85;;;;;;;20.55;54.64;101294.41;5078132;28;20044;-56
2022/06/07 02:23:51;;;;;;;5.05;3.13;;;;;;;20.54;54.73;101295.38;5075321;28;20044;-55
2022/06/07 02:26:35;;;;;;;7.20;2.95;;;;;;;20.55;54.61;101291.72;5077078;28;20056;-56
2022/06/07 02:29:15;;;;;;;4.07;2.95;;;;;;;20.54;54.24;101280.06;5079232;28;20052;-56
2022/06/07 02:31:47;;;;;;;6.13;3.10;;;;;;;20.54;54.16;101296.22;5077355;28;20047;-56
2022/06/07 02:34:15;;;;;;;4.18;2.92;;;;;;;20.55;54.42;101294.41;5078225;28;20036;-56
2022/06/07 02:36:47;;;;;;;7.93;3.40;;;;;;;20.54;54.19;101290.84;5076970;28;20059;-55
2022/06/07 02:39:14;;;;;;;4.90;3.10;;;;;;;20.53;54.63;101289.16;5074656;28;20074;-55
2022/06/07 02:41:42;;;;;;;5.00;2.95;;;;;;;20.53;54.53;101293.69;5074090;28;20324;-55
2022/06/07 02:44:08;;;;;;;4.78;3.03;;;;;;;20.53;54.23;101291.00;5075067;28;20054;-57
2022/06/07 02:46:35;;;;;;;3.35;2.67;;;;;;;20.52;54.37;101290.16;5076928;28;20040;-57
2022/06/07 02:49:02;;;;;;;3.78;2.70;;;;;;;20.52;54.14;101292.88;5078845;28;20135;-57
2022/06/07 02:51:29;;;;;;;4.15;3.03;;;;;;;20.52;53.90;101289.31;5075969;28;20044;-57
2022/06/07 02:54:02;;;;;;;;;;;;;;;20.52;54.48;101282.09;5075042;28;20577;-57
2022/06/07 02:56:29;;;;;;;3.13;2.55;;;;;;;20.54;54.16;101280.06;5075570;28;19927;-56
2022/06/07 02:58:55;;;;;;;3.35;2.58;;;;;;;20.53;54.16;101272.16;5074715;28;20498;-57
2022/06/07 03:01:22;;;;;;;3.38;2.70;;;;;;;20.51;54.59;101277.72;5073679;28;20052;-56
2022/06/07 03:03:48;;;;;;;3.65;2.70;;;;;;;20.50;54.28;101284.09;5073605;28;21755;-57
2022/06/07 03:06:15;;;;;;;5.85;2.90;;;;;;;20.50;54.19;101284.09;5078338;28;20040;-57
2022/06/07 03:08:42;;;;;;;3.55;2.35;;;;;;;20.50;54.26;101280.53;5077467;28;20054;-55
2022/06/07 03:11:09;;;;;;;3.40;2.50;;;;;;;20.49;54.62;101276.19;5074776;28;20442;-56
2022/06/07 03:13:35;;;;;;;4.10;2.60;;;;;;;20.49;54.23;101281.56;5075999;28;20134;-56
2022/06/07 03:16:02;;;;;;;4.85;3.15;;;;;;;20.48;54.11;101282.53;5076052;28;20638;-57
2022/06/07 03:18:29;;;;;;;4.90;2.53;;;;;;;20.49;54.22;101279.72;5073925;28;20073;-56
2022/06/07 03:20:55;;;;;;;3.55;2.55;;;;;;;20.48;54.69;101283.38;5076447;28;20067;-56
2022/06/07 03:23:22;;;;;;;4.75;3.10;;;;;;;20.50;54.06;101288.63;5077589;28;20044;-56
2022/06/07 03:25:48;;;;;;;4.55;2.80;;;;;;;20.49;54.57;101289.63;5075595;28;20517;-56
2022/06/07 03:28:15;;;;;;;2.78;2.33;;;;;;;20.48;54.36;101287.94;5078959;28;20045;-55
2022/06/07 03:30:41;;;;;;;3.63;2.50;;;;;;;20.48;54.68;101286.06;5072388;28;20063;-56
2022/06/07 03:33:09;;;;;;;4.75;2.70;;;;;;;20.48;54.66;101291.47;5075003;28;20051;-56
2022/06/07 03:35:38;;;;;;;3.42;2.67;;;;;;;20.48;54.14;101283.38;5076293;28;20735;-56
2022/06/07 03:38:04;;;;;;;3.30;2.35;;;;;;;20.48;54.41;101286.06;5073113;28;20058;-55
2022/06/07 03:40:43;;;;;;;3.83;2.70;;;;;;;20.48;54.56;101285.22;5077300;28;20052;-55
2022/06/07 03:43:11;;;;;;;3.60;2.65;;;;;;;20.48;54.22;101287.94;5077478;28;20053;-55
2022/06/07 03:45:38;;;;;;;3.72;2.70;;;;;;;20.48;54.60;101291.47;5078309;28;20054;-55
2022/06/07 03:48:05;;;;;;;3.58;2.78;;;;;;;20.47;54.14;101284.41;5074571;28;20063;-56
2022/06/07 03:50:32;;;;;;;3.92;2.75;;;;;;;20.47;54.14;101284.41;5076928;28;20338;-56
2022/06/07 03:53:00;;;;;;;4.45;3.05;;;;;;;20.47;54.24;101289.78;5071912;28;20046;-56
2022/06/07 03:55:27;;;;;;;3.55;2.80;;;;;;;20.48;54.54;101288.75;5076791;28;20047;-56
2022/06/07 03:57:53;;;;;;;3.28;2.40;;;;;;;20.48;53.93;101286.06;5077992;28;20063;-55
2022/06/07 04:00:20;;;;;;;4.82;2.75;;;;;;;20.48;54.40;101293.31;5072835;28;20039;-57
2022/06/07 04:02:46;;;;;;;5.85;3.05;;;;;;;20.48;54.58;101299.53;5079386;28;20131;-56
2022/06/07 04:05:13;;;;;;;7.28;3.28;;;;;;;20.49;54.67;101297.72;5077020;28;20386;-56
2022/06/07 04:10:25;;;;;;;17.13;4.70;;;;;;;20.49;54.85;101303.94;5078813;28;20444;-56
2022/06/07 04:12:51;;;;;;;14.57;4.25;;;;;;;20.50;54.31;101302.09;5072452;28;20075;-56
2022/06/07 04:15:19;;;;;;;10.00;4.78;;;;;;;20.48;54.13;101296.00;5074579;28;20040;-56
2022/06/07 04:17:46;;;;;;;14.50;5.30;;;;;;;20.48;54.77;101296.00;5074299;28;20041;-56
2022/06/07 04:20:12;;;;;;;23.00;6.78;;;;;;;20.48;54.78;101298.69;5072304;28;20052;-56
2022/06/07 04:22:39;;;;;;;13.25;5.03;;;;;;;20.48;54.23;101304.91;5080882;28;20054;-56
2022/06/07 04:25:06;;;;;;;15.57;5.30;;;;;;;20.46;54.60;101299.72;5080558;28;20048;-57
2022/06/07 04:27:32;;;;;;;15.23;6.00;;;;;;;20.46;54.32;101313.16;5080917;28;20044;-56
2022/06/07 04:29:59;;;;;;;14.73;5.47;;;;;;;20.46;54.56;101305.09;5073064;28;20427;-56
2022/06/07 04:32:25;;;;;;;11.98;5.30;;;;;;;20.46;54.26;101305.09;5073919;28;20478;-56
2022/06/07 04:34:52;;;;;;;14.00;6.45;;;;;;;20.47;54.12;101303.25;5078958;28;20052;-56
2022/06/07 04:37:19;;;;;;;10.88;4.55;;;;;;;20.47;54.64;101316.72;5081688;28;20343;-56
2022/06/07 04:39:46;;;;;;;14.55;5.97;;;;;;;20.47;54.06;101316.72;5084174;28;20067;-56
2022/06/07 04:42:12;;;;;;;13.07;5.97;;;;;;;20.47;54.56;101316.72;5080713;28;20044;-56
2022/06/07 04:44:39;;;;;;;15.13;6.00;;;;;;;20.47;54.65;101319.41;5081735;28;20335;-56
2022/06/07 04:47:05;;;;;;;14.70;6.03;;;;;;;20.48;54.52;101318.38;5082046;28;20040;-56
2022/06/07 04:49:32;;;;;;;10.77;5.60;;;;;;;20.48;54.69;101315.69;5082540;28;20039;-56
2022/06/07 04:51:58;;;;;;;13.30;5.40;;;;;;;20.49;54.35;101319.25;5084416;28;20044;-56
2022/06/07 04:54:25;;;;;;;14.63;5.95;;;;;;;20.50;54.48;101323.63;5081857;28;20123;-56
2022/06/07 04:56:54;;;;;;;15.48;5.75;;;;;;;20.49;54.48;101322.78;5086015;28;20040;-56
2022/06/07 04:59:20;;;;;;;12.38;5.60;;;;;;;20.49;54.26;101320.09;5080165;28;20131;-56
2022/06/07 05:01:47;;;;;;;9.13;5.05;;;;;;;20.50;53.92;101311.00;5082232;28;20037;-56
2022/06/07 05:04:14;;;;;;;12.70;5.68;;;;;;;20.52;54.16;101324.34;5079871;28;20393;-56
2022/06/07 05:06:42;;;;;;;12.18;5.50;;;;;;;20.52;54.68;101324.34;5080758;28;20044;-56
2022/06/07 05:09:12;;;;;;;13.30;5.32;;;;;;;20.53;53.93;101315.25;5079389;28;20043;-57
2022/06/07 05:11:39;;;;;;;11.77;4.90;;;;;;;20.53;53.96;101326.03;5080248;28;20379;-57
2022/06/07 05:14:08;;;;;;;12.98;5.50;;;;;;;20.54;54.22;101320.47;5080757;28;20044;-56
2022/06/07 05:16:39;;;;;;;10.13;4.97;;;;;;;20.54;54.29;101325.84;5084349;28;20118;-56
2022/06/07 05:19:07;;;;;;;11.23;5.45;;;;;;;20.55;54.13;101329.41;5078431;28;20371;-56
2022/06/07 05:21:33;;;;;;;10.10;5.53;;;;;;;20.55;54.21;101332.09;5083521;28;20434;-57
2022/06/07 05:24:00;;;;;;;10.63;5.40;;;;;;;20.55;54.35;101330.25;5084347;28;20511;-56
2022/06/07 05:26:27;;;;;;;9.63;5.10;;;;;;;20.55;54.40;101334.81;5084485;28;20055;-55
2022/06/07 05:28:54;;;;;;;10.23;5.65;;;;;;;20.56;54.10;101331.09;5082882;28;20044;-56
2022/06/07 05:31:21;;;;;;;11.25;5.63;;;;;;;20.58;53.67;101327.25;5082645;28;20039;-55
2022/06/07 05:33:47;;;;;;;9.63;5.15;;;;;;;20.57;53.77;101322.84;5080922;28;20347;-54
2022/06/07 05:36:15;;;;;;;11.65;5.40;;;;;;;20.58;54.00;101324.56;5083686;28;20042;-57
2022/06/07 05:38:45;;;;;;;8.55;5.03;;;;;;;20.58;53.75;101329.06;5080211;28;20053;-57
2022/06/07 05:41:21;;;;;;;8.57;4.70;;;;;;;20.58;54.37;101326.38;5080329;28;20044;-57
2022/06/07 05:43:48;;;;;;;11.13;4.97;;;;;;;20.59;53.60;101326.25;5080029;28;20051;-56
2022/06/07 05:46:16;;;;;;;11.55;5.00;;;;;;;20.60;54.00;101324.38;5077652;28;20454;-55
2022/06/07 05:48:42;;;;;;;9.57;4.80;;;;;;;20.60;54.31;101330.63;5077213;28;20552;-56
2022/06/07 05:51:10;;;;;;;9.02;4.75;;;;;;;20.61;53.89;101328.75;5079497;28;20048;-57
2022/06/07 05:53:37;;;;;;;9.48;4.78;;;;;;;20.61;54.07;101328.75;5075345;28;20131;-56
2022/06/07 05:56:09;;;;;;;18.67;6.60;;;;;;;20.61;53.64;101326.91;5078522;28;20032;-56
2022/06/07 05:58:36;;;;;;;15.70;7.00;;;;;;;20.63;53.87;101335.69;5079112;28;20051;-56
2022/06/07 06:01:04;;;;;;;20.10;6.55;;;;;;;20.63;53.48;101330.31;5078223;28;20094;-56
2022/06/07 06:03:31;;;;;;;16.30;6.68;;;;;;;20.64;53.95;101328.44;5076952;28;20067;-55
2022/06/07 06:05:58;;;;;;;24.98;7.50;;;;;;;20.65;53.47;101336.38;5079284;28;20558;-55
2022/06/07 06:11:13;;;;;;;27.80;8.90;;;;;;;20.67;54.08;101336.22;5075145;28;20064;-56
2022/06/07 06:13:40;;;;;;;23.70;8.98;;;;;;;20.67;53.71;101337.06;5079110;28;20127;-56
2022/06/07 06:16:13;;;;;;;28.08;8.80;;;;;;;20.67;54.12;101334.38;5079577;28;20123;-57
2022/06/07 06:18:41;;;;;;;21.42;7.55;;;;;;;20.67;53.87;101342.44;5077830;28;20736;-56
2022/06/07 06:21:09;;;;;;;16.88;6.88;;;;;;;20.70;54.05;101341.25;5079129;28;20079;-57
2022/06/07 06:23:36;;;;;;;17.05;7.57;;;;;;;20.69;53.94;101342.28;5080822;28;20054;-56
2022/06/07 06:26:10;;;;;;;16.60;6.43;;;;;;;20.70;53.82;101333.19;5079447;28;20131;-55
2022/06/07 06:28:37;;;;;;;18.55;6.75;;;;;;;20.71;53.96;101334.91;5077356;28;20493;-56
2022/06/07 06:31:07;;;;;;;16.92;6.90;;;;;;;20.72;53.40;101333.88;5077575;28;20045;-56
2022/06/07 06:33:50;;;;;;;17.33;6.07;;;;;;;20.73;53.70;101332.03;5080038;28;20404;-56
2022/06/07 06:36:20;;;;;;;16.30;6.70;;;;;;;20.73;53.82;101334.72;5079415;28;20151;-55
2022/06/07 06:38:47;;;;;;;12.00;6.18;;;;;;;20.74;53.79;101336.41;5077289;28;20050;-56
2022/06/07 06:41:13;;;;;;;15.95;6.53;;;;;;;20.74;53.96;101339.94;5079864;28;20490;-56
2022/06/07 06:43:41;;;;;;;16.92;6.80;;;;;;;20.75;53.60;101338.97;5077204;28;20195;-55
2022/06/07 06:46:15;;;;;;;13.18;6.28;;;;;;;20.77;53.36;101344.19;5076434;28;20040;-55
2022/06/07 06:48:43;;;;;;;13.18;6.35;;;;;;;20.77;53.55;101347.72;5076183;28;20409;-55
2022/06/07 06:51:12;;;;;;;12.55;5.65;;;;;;;20.78;53.52;101338.63;5076176;28;20048;-56
2022/06/07 06:53:41;;;;;;;13.23;5.32;;;;;;;20.79;53.36;101350.28;5080936;28;20062;-56
2022/06/07 06:56:13;;;;;;;12.15;6.18;;;;;;;20.80;53.04;101351.94;5074249;28;20037;-57
2022/06/07 06:58:40;;;;;;;14.32;5.63;;;;;;;20.79;53.62;101337.63;5080192;28;20057;-57
2022/06/07 07:01:11;;;;;;;12.25;5.70;;;;;;;20.80;53.13;101351.94;5076547;28;20438;-56
2022/06/07 07:03:40;;;;;;;12.93;5.45;;;;;;;20.82;53.53;101360.69;5077760;28;20052;-56
2022/06/07 07:06:09;;;;;;;10.25;5.07;;;;;;;20.82;53.37;101348.06;5076599;28;20087;-57
2022/06/07 07:08:38;;;;;;;9.55;5.45;;;;;;;20.83;53.08;101362.41;5079510;28;20143;-56
2022/06/07 07:11:19;;;;;;;10.63;5.72;;;;;;;20.83;53.60;101351.63;5078463;28;20148;-56
2022/06/07 07:13:47;;;;;;;16.98;5.85;;;;;;;20.84;53.72;101353.31;5080182;28;20404;-56
2022/06/07 07:16:18;;;;;;;17.55;7.00;;;;;;;20.84;53.00;101356.00;5079332;28;20114;-56
2022/06/07 07:18:46;;;;;;;13.25;6.25;;;;;;;20.84;53.32;101358.72;5080549;28;20105;-57
2022/06/07 07:21:15;;;;;;;13.60;6.22;;;;;;;20.85;53.40;101355.00;5082121;28;20485;-56
2022/06/07 07:23:45;;;;;;;12.00;6.05;;;;;;;20.86;53.09;101357.53;5080917;28;20080;-56
2022/06/07 07:26:16;;;;;;;12.68;5.50;;;;;;;20.86;53.27;101359.38;5084634;28;20119;-55
2022/06/07 07:28:43;;;;;;;10.77;5.32;;;;;;;20.87;53.03;101363.78;5080665;28;20055;-56
2022/06/07 07:31:14;;;;;;;11.88;5.75;;;;;;;20.88;53.37;101362.78;5076677;28;20047;-56
2022/06/07 07:33:41;;;;;;;11.95;5.85;;;;;;;20.90;52.96;101366.13;5078944;28;20059;-56
2022/06/07 07:36:09;;;;;;;11.63;5.28;;;;;;;20.91;53.17;101367.84;5078168;28;20056;-56
2022/06/07 07:38:37;;;;;;;10.93;5.22;;;;;;;20.90;53.00;101374.22;5079946;28;20040;-56
2022/06/07 07:41:12;;;;;;;7.38;4.57;;;;;;;20.91;52.92;101365.16;5081864;28;20308;-56
2022/06/07 07:43:38;;;;;;;9.15;4.53;;;;;;;20.92;52.86;101359.59;5079615;28;20050;-55
2022/06/07 07:46:06;;;;;;;11.27;4.15;;;;;;;20.91;53.21;101363.31;5082435;28;20109;-55
2022/06/07 07:48:32;;;;;;;8.25;4.38;;;;;;;20.93;53.24;101368.53;5082350;28;20070;-56
2022/06/07 07:51:05;;;;;;;9.27;4.38;;;;;;;20.93;53.03;101363.97;5082112;28;20044;-56
2022/06/07 07:53:33;;;;;;;9.48;4.78;;;;;;;20.95;52.93;101355.75;5081561;28;20048;-56
2022/06/07 07:56:00;;;;;;;10.70;4.57;;;;;;;20.97;53.14;101358.28;5077682;28;20046;-56
2022/06/07 07:58:26;;;;;;;7.13;3.70;;;;;;;20.97;52.73;101361.81;5078306;28;20123;-56
2022/06/07 08:00:53;;;;;;;6.32;3.97;;;;;;;20.97;52.55;101364.50;5078688;28;20041;-56
2022/06/07 08:03:19;;;;;;;6.28;4.10;;;;;;;20.98;52.79;101360.78;5079082;28;20036;-55
2022/06/07 08:05:57;;;;;;;7.57;4.20;;;;;;;20.99;52.82;101365.19;5078686;28;20059;-56
2022/06/07 08:08:24;;;;;;;10.55;4.18;;;;;;;21.00;52.47;101366.03;5077826;28;20131;-55
2022/06/07 08:10:50;;;;;;;7.13;4.30;;;;;;;20.99;52.57;101367.91;5078825;28;20040;-57
2022/06/07 08:13:17;;;;;;;8.40;4.53;;;;;;;21.00;52.61;101376.81;5083269;28;20824;-56
2022/06/07 08:15:45;;;;;;;7.18;3.40;;;;;;;21.00;52.61;101369.56;5078507;28;20127;-56
2022/06/07 08:18:11;;;;;;;7.03;3.90;;;;;;;21.00;52.65;101368.75;5078069;28;20363;-55
2022/06/07 08:20:38;;;;;;;4.53;3.65;;;;;;;20.99;52.38;101370.59;5077125;28;20139;-56
2022/06/07 08:23:07;;;;;;;8.52;4.35;;;;;;;21.01;52.38;101371.25;5079689;28;20360;-57
2022/06/07 08:25:34;;;;;;;6.13;3.72;;;;;;;21.00;52.74;101366.88;5074426;28;20135;-56
2022/06/07 08:28:03;;;;;;;6.03;3.45;;;;;;;21.00;52.62;101377.66;5080081;28;20045;-55
2022/06/07 08:30:30;;;;;;;5.93;3.92;;;;;;;21.02;52.44;101382.88;5077119;28;21268;-56
2022/06/07 08:32:56;;;;;;;10.68;3.88;;;;;;;21.02;52.57;101372.09;5076744;28;20048;-56
2022/06/07 08:38:09;;;;;;;6.78;4.20;;;;;;;21.03;52.52;101377.34;5079849;28;20434;-56
2022/06/07 08:40:43;;;;;;;7.13;3.70;;;;;;;21.03;52.65;101374.66;5080070;28;20163;-56
2022/06/07 08:43:19;;;;;;;4.97;3.42;;;;;;;21.03;52.22;101374.66;5082179;28;20051;-56
2022/06/07 08:45:47;;;;;;;4.70;3.30;;;;;;;21.05;52.14;101377.19;5078974;28;20351;-57
2022/06/07 08:48:18;;;;;;;6.40;3.63;;;;;;;21.05;52.73;101374.47;5079187;28;20053;-57
2022/06/07 08:50:47;;;;;;;6.05;3.30;;;;;;;21.05;52.40;101380.72;5078173;28;20481;-57
2022/06/07 08:53:33;;;;;;;9.18;3.38;;;;;;;21.06;52.75;101382.41;5079189;28;20123;-57
2022/06/07 08:56:04;;;;;;;5.68;3.20;;;;;;;21.08;52.50;101387.66;5082304;28;20039;-57
2022/06/07 08:58:43;;;;;;;6.22;3.55;;;;;;;21.07;52.35;101380.56;5080903;28;20044;-55
2022/06/07 09:01:33;;;;;;;5.38;3.50;;;;;;;21.08;52.04;101379.56;5083025;28;20158;-57
2022/06/07 09:04:26;;;;;;;5.07;3.45;;;;;;;21.10;52.35;101383.75;5084427;28;20044;-56
2022/06/07 09:07:00;;;;;;;5.13;3.03;;;;;;;21.10;52.24;101377.53;5081138;28;20048;-56
2022/06/07 09:12:09;;;;;;;;;;;;;;;21.10;51.98;101381.06;5079938;28;20040;-57
2022/06/07 09:12:21;;;;;;;4.57;3.33;;;;;;;21.13;52.34;101377.22;5078828;28;20569;-57
2022/06/07 09:14:53;;;;;;;5.35;3.38;;;;;;;21.13;52.09;101369.97;5079139;28;20045;-56
2022/06/07 09:17:30;;;;;;;6.20;3.20;;;;;;;21.13;52.34;101375.34;5082469;28;20302;-56
2022/06/07 09:19:57;;;;;;;5.05;3.13;;;;;;;21.14;52.36;101378.91;5086014;28;20125;-57
2022/06/07 09:22:38;;;;;;;4.53;2.63;;;;;;;21.14;52.26;101373.50;5086901;28;20043;-55
2022/06/07 09:25:13;;;;;;;5.50;3.10;;;;;;;21.14;52.15;101371.66;5087202;28;20131;-56
2022/06/07 09:27:41;;;;;;;4.20;2.58;;;;;;;21.15;51.85;101370.66;5082401;28;20522;-56
2022/06/07 09:30:29;;;;;;;6.22;2.80;;;;;;;21.15;51.96;101375.22;5081687;28;20052;-57
2022/06/07 09:32:56;;;;;;;4.38;2.80;;;;;;;21.17;52.01;101374.03;5082513;28;20051;-57
2022/06/07 09:35:36;;;;;;;5.43;2.83;;;;;;;21.17;52.04;101384.81;5078213;28;20419;-57
2022/06/07 09:38:12;;;;;;;3.83;2.80;;;;;;;21.18;52.04;101381.09;5080715;28;20135;-57
2022/06/07 09:40:53;;;;;;;5.30;2.95;;;;;;;21.20;51.77;101378.25;5082066;28;20056;-56
2022/06/07 09:43:26;;;;;;;3.83;2.75;;;;;;;21.20;51.74;101365.63;5082948;28;20040;-57
2022/06/07 09:46:00;;;;;;;4.05;2.63;;;;;;;21.24;51.83;101376.09;5080240;28;20136;-56
2022/06/07 09:48:44;;;;;;;3.38;2.38;;;;;;;21.26;51.68;101376.75;5080696;28;20064;-56
2022/06/07 09:51:23;;;;;;;5.32;2.80;;;;;;;21.28;51.50;101374.78;5084232;28;20079;-56
2022/06/07 09:54:03;;;;;;;3.42;2.50;;;;;;;21.30;51.96;101378.13;5084239;28;20365;-56
2022/06/07 09:56:54;;;;;;;3.17;2.45;;;;;;;21.31;51.73;101374.44;5078102;28;20047;-56
2022/06/07 09:59:44;;;;;;;3.40;2.70;;;;;;;21.32;51.72;101370.75;5081604;28;20119;-57
2022/06/07 10:02:17;;;;;;;2.92;2.40;;;;;;;21.34;51.65;101371.44;5080084;28;20047;-57
2022/06/07 10:05:08;;;;;;;7.50;3.17;;;;;;;21.34;51.96;101372.28;5080202;28;20332;-57
2022/06/07 10:07:45;;;;;;;3.15;2.60;;;;;;;21.36;51.57;101366.75;5078188;28;20047;-56
2022/06/07 10:10:37;;;;;;;3.08;2.38;;;;;;;21.37;51.56;101373.81;5078024;28;20050;-57
2022/06/07 10:13:15;;;;;;;2.75;2.40;;;;;;;21.38;51.37;101378.19;5081374;28;20067;-57
2022/06/07 10:15:51;;;;;;;3.85;2.60;;;;;;;21.38;51.85;101378.19;5081155;28;21249;-57
2022/06/07 10:18:46;;;;;;;2.78;2.17;;;;;;;21.38;51.44;101380.88;5080579;28;20048;-56
2022/06/07 10:21:41;;;;;;;3.55;2.50;;;;;;;21.39;51.72;101371.81;5084832;28;20048;-57
2022/06/07 10:24:32;;;;;;;6.38;2.70;;;;;;;21.39;51.60;101372.66;5081516;28;20047;-56
2022/06/07 10:27:17;;;;;;;6.07;2.85;;;;;;;21.40;51.58;101379.72;5079687;28;20044;-57
2022/06/07 10:30:17;;;;;;;3.60;2.75;;;;;;;21.40;51.52;101378.88;5078395;28;20053;-57
2022/06/07 10:33:00;;;;;;;3.03;2.55;;;;;;;21.42;51.53;101377.69;5081120;28;20131;-57
2022/06/07 10:35:44;;;;;;;3.88;2.08;;;;;;;21.41;51.24;101376.00;5078570;28;20062;-57
2022/06/07 10:38:19;;;;;;;3.45;2.80;;;;;;;21.42;51.25;101375.00;5081940;28;20038;-57
2022/06/07 10:41:03;;;;;;;3.38;2.28;;;;;;;21.42;51.90;101384.94;5084298;28;20051;-57
2022/06/07 10:43:42;;;;;;;2.75;2.22;;;;;;;21.42;51.32;101375.00;5084274;28;20218;-57
2022/06/07 10:46:14;;;;;;;4.07;2.42;;;;;;;21.43;51.49;101384.81;5084497;28;20048;-56
2022/06/07 10:49:11;;;;;;;4.10;2.30;;;;;;;21.44;51.54;101388.34;5080161;28;20067;-56
2022/06/07 10:54:41;;;;;;;4.43;2.80;;;;;;;21.44;51.59;101382.94;5084190;28;20043;-57
2022/06/07 10:57:19;;;;;;;3.42;2.50;;;;;;;21.45;51.71;101381.94;5082707;28;20129;-56
2022/06/07 10:59:47;;;;;;;4.47;2.47;;;;;;;21.46;51.64;101380.91;5083489;28;20056;-56
2022/06/07 11:02:32;;;;;;;2.78;2.00;;;;;;;21.45;51.50;101376.53;5086848;28;20040;-55
2022/06/07 11:10:58;;;;;;;3.00;2.30;;;;;;;21.48;51.28;101381.63;5079552;28;20049;-56
2022/06/07 11:13:33;;;;;;;3.75;2.47;;;;;;;21.49;51.26;101387.84;5078656;28;20358;-57
2022/06/07 11:16:15;;;;;;;3.30;2.30;;;;;;;21.49;51.30;101390.53;5080790;28;20138;-56
2022/06/07 11:18:42;;;;;;;2.55;2.35;;;;;;;21.50;51.66;101384.97;5079685;28;20040;-56
2022/06/07 11:21:13;;;;;;;3.03;2.25;;;;;;;21.50;51.18;101387.69;5081691;28;20129;-56
2022/06/07 11:23:42;;;;;;;2.97;2.33;;;;;;;21.50;51.37;101382.28;5078499;28;20167;-55
2022/06/07 11:26:15;;;;;;;2.80;2.35;;;;;;;21.52;51.34;101387.53;5080550;28;20127;-56
2022/06/07 11:28:43;;;;;;;3.40;2.55;;;;;;;21.51;51.24;101381.28;5081973;28;20396;-57
2022/06/07 11:31:40;;;;;;;4.03;2.50;;;;;;;21.51;51.48;101386.69;5078551;28;20044;-57
2022/06/07 11:34:12;;;;;;;3.10;2.40;;;;;;;21.53;51.31;101383.81;5080155;28;20071;-57
2022/06/07 11:36:43;;;;;;;3.85;2.28;;;;;;;21.53;51.39;101395.44;5080172;28;20135;-56
2022/06/07 11:39:30;;;;;;;3.15;2.20;;;;;;;21.52;51.02;101380.28;5078005;28;20066;-57
2022/06/07 11:41:56;;;;;;;2.88;2.25;;;;;;;;;;5078151;28;20051;-56
2022/06/07 11:44:34;;;;;;;2.50;2.22;;;;;;;21.54;51.08;101396.28;5079935;28;20131;-56
2022/06/07 11:47:23;;;;;;;4.15;2.45;;;;;;;21.55;51.31;101390.75;5078546;28;20044;-56
2022/06/07 11:49:50;;;;;;;3.00;2.38;;;;;;;;;;5079803;28;20037;-55
2022/06/07 11:52:24;;;;;;;3.20;2.10;;;;;;;21.56;51.38;101395.13;5079028;28;20047;-56
2022/06/07 11:55:04;;;;;;;2.75;2.30;;;;;;;21.56;51.26;101384.34;5078277;28;20131;-56
2022/06/07 11:58:00;;;;;;;2.63;2.25;;;;;;;21.57;51.17;101390.56;5077071;28;20052;-56
2022/06/07 12:00:30;;;;;;;4.13;2.17;;;;;;;21.57;51.44;101388.72;5076641;28;20529;-56
2022/06/07 12:02:56;;;;;;;2.80;2.10;;;;;;;21.56;51.08;101389.72;5078362;28;20434;-56
2022/06/07 12:05:45;;;;;;;6.18;2.45;;;;;;;21.58;51.45;101381.47;5078859;28;20102;-56